TSO103 UUEE-URWW
Flight info
| Callsign | TSO103 |
|---|---|
| Flight time | 1h 20m |
| Altitude | 41000 |
| Route | TOGMO3J TOGMO M56 ABAGI B105 NIMTA/K0895F400 B105 NATIT NATIT2J |
| Aircraft | A359/H-SDE2E3GHIJ3J4J5LM1ORWXY/LB1D1 |
Departure
| Time | 2026-05-07 18:07 |
|---|---|
| Airport | Sheremetyevo International Airport (UUEE) |
Arrival
| Time | 2026-05-07 19:27 |
|---|---|
| Airport | Volgograd International Airport (URWW) |
| Time | Latitude | Longitude | Altitude | Speed | Heading |
|---|---|---|---|---|---|
| 2026-05-07 18:07 | 55.91931 | 37.26195 | 5585 ft | 233 kts | 223° |
| 2026-05-07 18:07 | 55.90444 | 37.24824 | 6246 ft | 250 kts | 199° |
| 2026-05-07 18:07 | 55.88723 | 37.24272 | 7156 ft | 253 kts | 193° |
| 2026-05-07 18:07 | 55.86965 | 37.23869 | 8067 ft | 256 kts | 193° |
| 2026-05-07 18:08 | 55.85186 | 37.23478 | 8999 ft | 258 kts | 193° |
| 2026-05-07 18:08 | 55.83397 | 37.23086 | 9959 ft | 260 kts | 193° |
| 2026-05-07 18:08 | 55.81544 | 37.22673 | 10537 ft | 277 kts | 193° |
| 2026-05-07 18:08 | 55.79586 | 37.22235 | 11126 ft | 290 kts | 192° |
| 2026-05-07 18:09 | 55.77562 | 37.21794 | 11919 ft | 296 kts | 192° |
| 2026-05-07 18:09 | 55.75490 | 37.21343 | 12722 ft | 303 kts | 192° |
| 2026-05-07 18:09 | 55.73381 | 37.20884 | 13552 ft | 308 kts | 192° |
| 2026-05-07 18:09 | 55.71262 | 37.20423 | 14307 ft | 313 kts | 192° |
| 2026-05-07 18:10 | 55.69086 | 37.19950 | 15068 ft | 317 kts | 192° |
| 2026-05-07 18:10 | 55.66882 | 37.19471 | 15829 ft | 321 kts | 192° |
| 2026-05-07 18:10 | 55.64655 | 37.18986 | 16574 ft | 325 kts | 192° |
| 2026-05-07 18:10 | 55.62388 | 37.18493 | 17260 ft | 330 kts | 192° |
| 2026-05-07 18:11 | 55.60078 | 37.17991 | 17998 ft | 335 kts | 191° |
| 2026-05-07 18:11 | 55.58541 | 37.17657 | 18449 ft | 338 kts | 191° |
| 2026-05-07 18:11 | 55.55413 | 37.16980 | 19307 ft | 344 kts | 191° |
| 2026-05-07 18:11 | 55.53017 | 37.16461 | 19936 ft | 350 kts | 191° |
| 2026-05-07 18:12 | 55.50581 | 37.15935 | 20583 ft | 354 kts | 191° |
| 2026-05-07 18:12 | 55.48129 | 37.15406 | 21272 ft | 358 kts | 191° |
| 2026-05-07 18:12 | 55.45629 | 37.14999 | 21948 ft | 365 kts | 185° |
| 2026-05-07 18:12 | 55.43077 | 37.15590 | 22642 ft | 377 kts | 167° |
| 2026-05-07 18:13 | 55.40647 | 37.17504 | 23306 ft | 387 kts | 155° |
| 2026-05-07 18:13 | 55.38284 | 37.19865 | 23878 ft | 392 kts | 154° |
| 2026-05-07 18:13 | 55.35909 | 37.22279 | 24437 ft | 395 kts | 154° |
| 2026-05-07 18:13 | 55.33536 | 37.24671 | 24997 ft | 399 kts | 154° |
| 2026-05-07 18:14 | 55.31107 | 37.27102 | 25555 ft | 402 kts | 154° |
| 2026-05-07 18:14 | 55.28666 | 37.29531 | 26121 ft | 405 kts | 154° |
| 2026-05-07 18:14 | 55.26197 | 37.31980 | 26653 ft | 408 kts | 154° |
| 2026-05-07 18:14 | 55.23728 | 37.34500 | 27198 ft | 413 kts | 150° |
| 2026-05-07 18:15 | 55.21524 | 37.37786 | 27731 ft | 423 kts | 133° |
| 2026-05-07 18:15 | 55.19904 | 37.42052 | 28304 ft | 428 kts | 121° |
| 2026-05-07 18:15 | 55.18498 | 37.46673 | 28823 ft | 432 kts | 119° |
| 2026-05-07 18:15 | 55.17096 | 37.51360 | 29359 ft | 435 kts | 120° |
| 2026-05-07 18:16 | 55.15678 | 37.56064 | 29880 ft | 438 kts | 120° |
| 2026-05-07 18:16 | 55.14244 | 37.60795 | 30308 ft | 441 kts | 120° |
| 2026-05-07 18:16 | 55.13047 | 37.65773 | 30664 ft | 447 kts | 106° |
| 2026-05-07 18:16 | 55.12388 | 37.71101 | 31072 ft | 451 kts | 100° |
| 2026-05-07 18:17 | 55.11859 | 37.76523 | 31489 ft | 453 kts | 100° |
| 2026-05-07 18:17 | 55.11336 | 37.81951 | 31990 ft | 453 kts | 100° |
| 2026-05-07 18:17 | 55.10704 | 37.87365 | 32333 ft | 456 kts | 107° |
| 2026-05-07 18:17 | 55.09415 | 37.92427 | 32664 ft | 457 kts | 124° |
| 2026-05-07 18:18 | 55.07445 | 37.96683 | 33021 ft | 458 kts | 135° |
| 2026-05-07 18:18 | 55.05226 | 38.00685 | 33355 ft | 461 kts | 136° |
| 2026-05-07 18:18 | 55.02967 | 38.04688 | 33694 ft | 464 kts | 136° |
| 2026-05-07 18:18 | 55.00695 | 38.08727 | 34025 ft | 467 kts | 136° |
| 2026-05-07 18:19 | 54.98414 | 38.12796 | 34321 ft | 470 kts | 136° |
| 2026-05-07 18:19 | 54.96125 | 38.16882 | 34637 ft | 472 kts | 136° |
| 2026-05-07 18:19 | 54.93827 | 38.20983 | 34992 ft | 472 kts | 135° |
| 2026-05-07 18:19 | 54.91550 | 38.25044 | 35318 ft | 474 kts | 136° |
| 2026-05-07 18:20 | 54.89238 | 38.29162 | 35600 ft | 477 kts | 136° |
| 2026-05-07 18:20 | 54.86913 | 38.33303 | 35866 ft | 479 kts | 136° |
| 2026-05-07 18:20 | 54.84771 | 38.37764 | 36126 ft | 484 kts | 124° |
| 2026-05-07 18:20 | 54.83596 | 38.41050 | 36302 ft | 485 kts | 121° |
| 2026-05-07 18:21 | 54.81376 | 38.47913 | 36633 ft | 489 kts | 120° |
| 2026-05-07 18:21 | 54.80281 | 38.51333 | 36791 ft | 490 kts | 120° |
| 2026-05-07 18:21 | 54.78596 | 38.56480 | 37027 ft | 492 kts | 122° |
| 2026-05-07 18:21 | 54.76616 | 38.61311 | 37269 ft | 491 kts | 132° |
| 2026-05-07 18:22 | 54.73335 | 38.66673 | 37535 ft | 491 kts | 146° |
| 2026-05-07 18:22 | 54.67529 | 38.72960 | 37887 ft | 494 kts | 151° |
| 2026-05-07 18:22 | 54.65533 | 38.75011 | 38091 ft | 494 kts | 151° |
| 2026-05-07 18:23 | 54.62612 | 38.78019 | 38399 ft | 493 kts | 151° |
| 2026-05-07 18:23 | 54.59670 | 38.81057 | 38678 ft | 493 kts | 151° |
| 2026-05-07 18:23 | 54.56723 | 38.84101 | 38901 ft | 493 kts | 151° |
| 2026-05-07 18:23 | 54.53781 | 38.87140 | 39069 ft | 493 kts | 151° |
| 2026-05-07 18:24 | 54.50835 | 38.90180 | 39269 ft | 493 kts | 151° |
| 2026-05-07 18:24 | 54.47886 | 38.93220 | 39446 ft | 493 kts | 151° |
| 2026-05-07 18:24 | 54.44938 | 38.96266 | 39644 ft | 494 kts | 150° |
| 2026-05-07 18:24 | 54.42154 | 38.99617 | 39792 ft | 496 kts | 142° |
| 2026-05-07 18:25 | 54.39670 | 39.03731 | 39952 ft | 498 kts | 132° |
| 2026-05-07 18:25 | 54.37622 | 39.08543 | 40097 ft | 501 kts | 122° |
| 2026-05-07 18:25 | 54.36041 | 39.13885 | 40264 ft | 502 kts | 115° |
| 2026-05-07 18:25 | 54.34653 | 39.19391 | 40423 ft | 502 kts | 113° |
| 2026-05-07 18:26 | 54.33333 | 39.24934 | 40629 ft | 502 kts | 112° |
| 2026-05-07 18:26 | 54.32038 | 39.30477 | 40800 ft | 501 kts | 112° |
| 2026-05-07 18:26 | 54.30734 | 39.36026 | 40908 ft | 502 kts | 112° |
| 2026-05-07 18:27 | 54.28086 | 39.47092 | 40920 ft | 502 kts | 113° |
| 2026-05-07 18:27 | 54.25411 | 39.58056 | 40918 ft | 502 kts | 113° |
| 2026-05-07 18:28 | 54.22696 | 39.69085 | 40917 ft | 502 kts | 114° |
| 2026-05-07 18:28 | 54.19974 | 39.80091 | 40914 ft | 502 kts | 114° |
| 2026-05-07 18:29 | 54.17246 | 39.91073 | 40919 ft | 502 kts | 114° |
| 2026-05-07 18:29 | 54.14525 | 40.01976 | 40913 ft | 502 kts | 114° |
| 2026-05-07 18:30 | 54.11864 | 40.13001 | 40921 ft | 503 kts | 108° |
| 2026-05-07 18:30 | 54.09767 | 40.24391 | 40916 ft | 503 kts | 107° |
| 2026-05-07 18:31 | 54.07794 | 40.35747 | 40923 ft | 502 kts | 107° |
| 2026-05-07 18:31 | 54.05818 | 40.47165 | 40916 ft | 502 kts | 107° |
| 2026-05-07 18:32 | 54.03821 | 40.58576 | 40929 ft | 502 kts | 107° |
| 2026-05-07 18:32 | 54.01807 | 40.69962 | 40921 ft | 502 kts | 107° |
| 2026-05-07 18:33 | 53.99782 | 40.81332 | 40932 ft | 502 kts | 107° |
| 2026-05-07 18:33 | 53.97767 | 40.92576 | 40932 ft | 502 kts | 107° |
| 2026-05-07 18:34 | 53.95723 | 41.03912 | 40931 ft | 502 kts | 107° |
| 2026-05-07 18:34 | 53.93782 | 41.15308 | 40929 ft | 502 kts | 105° |
| 2026-05-07 18:35 | 53.91943 | 41.26741 | 40929 ft | 501 kts | 105° |
| 2026-05-07 18:35 | 53.90089 | 41.38142 | 40932 ft | 501 kts | 106° |
| 2026-05-07 18:36 | 53.88213 | 41.49453 | 40933 ft | 500 kts | 106° |
| 2026-05-07 18:36 | 53.86307 | 41.60815 | 40928 ft | 501 kts | 106° |
| 2026-05-07 18:37 | 53.84390 | 41.72164 | 40933 ft | 501 kts | 106° |
| 2026-05-07 18:37 | 53.82461 | 41.83508 | 40932 ft | 500 kts | 106° |
| 2026-05-07 18:38 | 53.80517 | 41.94810 | 40934 ft | 500 kts | 107° |
| 2026-05-07 18:38 | 53.78575 | 42.06026 | 40932 ft | 500 kts | 107° |
| 2026-05-07 18:39 | 53.76612 | 42.17307 | 40935 ft | 500 kts | 107° |
| 2026-05-07 18:39 | 53.74638 | 42.28581 | 40931 ft | 500 kts | 107° |
| 2026-05-07 18:40 | 53.72657 | 42.39827 | 40938 ft | 499 kts | 107° |
| 2026-05-07 18:40 | 53.70663 | 42.51052 | 40937 ft | 498 kts | 107° |
| 2026-05-07 18:41 | 53.67767 | 42.61551 | 40938 ft | 496 kts | 124° |
| 2026-05-07 18:41 | 53.63089 | 42.69999 | 40939 ft | 493 kts | 144° |
| 2026-05-07 18:42 | 53.57114 | 42.75557 | 40939 ft | 491 kts | 157° |
| 2026-05-07 18:42 | 53.50816 | 42.80082 | 40937 ft | 492 kts | 159° |
| 2026-05-07 18:43 | 53.44492 | 42.84491 | 40940 ft | 492 kts | 158° |
| 2026-05-07 18:43 | 53.38218 | 42.88926 | 40942 ft | 492 kts | 158° |
| 2026-05-07 18:44 | 53.31917 | 42.93421 | 40938 ft | 492 kts | 158° |
| 2026-05-07 18:44 | 53.25603 | 42.97924 | 40942 ft | 492 kts | 158° |
| 2026-05-07 18:45 | 53.19314 | 43.02395 | 40943 ft | 492 kts | 158° |
| 2026-05-07 18:45 | 53.13051 | 43.06831 | 40940 ft | 491 kts | 158° |
| 2026-05-07 18:46 | 53.06785 | 43.11428 | 40939 ft | 492 kts | 156° |
| 2026-05-07 18:46 | 53.00551 | 43.16107 | 40947 ft | 492 kts | 156° |
| 2026-05-07 18:47 | 52.94295 | 43.20773 | 40940 ft | 492 kts | 156° |
| 2026-05-07 18:47 | 52.88037 | 43.25399 | 40946 ft | 492 kts | 157° |
| 2026-05-07 18:48 | 52.81817 | 43.29973 | 40943 ft | 492 kts | 157° |
| 2026-05-07 18:48 | 52.75553 | 43.34564 | 40948 ft | 492 kts | 157° |
| 2026-05-07 18:49 | 52.69276 | 43.39150 | 40947 ft | 492 kts | 157° |
| 2026-05-07 18:49 | 52.63010 | 43.43715 | 40948 ft | 492 kts | 157° |
| 2026-05-07 18:50 | 52.56782 | 43.48238 | 40948 ft | 492 kts | 157° |
| 2026-05-07 18:50 | 52.50506 | 43.52782 | 40951 ft | 492 kts | 157° |
| 2026-05-07 18:51 | 52.44232 | 43.57311 | 40947 ft | 492 kts | 157° |
| 2026-05-07 18:51 | 52.37956 | 43.61825 | 40949 ft | 492 kts | 157° |
| 2026-05-07 18:52 | 52.31728 | 43.66293 | 40951 ft | 492 kts | 157° |
| 2026-05-07 18:52 | 52.25455 | 43.70778 | 40952 ft | 492 kts | 157° |
| 2026-05-07 18:53 | 52.19181 | 43.75251 | 40961 ft | 492 kts | 157° |
| 2026-05-07 18:53 | 52.12905 | 43.79710 | 40950 ft | 492 kts | 157° |
| 2026-05-07 18:54 | 52.06624 | 43.84160 | 40953 ft | 492 kts | 157° |
| 2026-05-07 18:54 | 52.00368 | 43.88578 | 40963 ft | 492 kts | 157° |
| 2026-05-07 18:55 | 51.94088 | 43.93000 | 40965 ft | 492 kts | 157° |
| 2026-05-07 18:55 | 51.87809 | 43.97408 | 40964 ft | 492 kts | 157° |
| 2026-05-07 18:56 | 51.81516 | 44.01811 | 40961 ft | 492 kts | 157° |
| 2026-05-07 18:56 | 51.75259 | 44.06177 | 40954 ft | 492 kts | 157° |
| 2026-05-07 18:57 | 51.68955 | 44.10561 | 40953 ft | 492 kts | 157° |
| 2026-05-07 18:57 | 51.62698 | 44.14900 | 40966 ft | 492 kts | 157° |
| 2026-05-07 18:58 | 51.56403 | 44.19252 | 40969 ft | 492 kts | 157° |
| 2026-05-07 18:58 | 51.50096 | 44.23599 | 40963 ft | 493 kts | 157° |
| 2026-05-07 18:59 | 51.43786 | 44.27935 | 40963 ft | 493 kts | 157° |
| 2026-05-07 18:59 | 51.37479 | 44.32256 | 40968 ft | 493 kts | 157° |
| 2026-05-07 19:00 | 51.31209 | 44.36539 | 40966 ft | 493 kts | 158° |
| 2026-05-07 19:00 | 51.24880 | 44.40849 | 40960 ft | 493 kts | 157° |
| 2026-05-07 19:01 | 51.18529 | 44.45078 | 40960 ft | 493 kts | 162° |
| 2026-05-07 19:01 | 51.15200 | 44.46320 | 40965 ft | 492 kts | 174° |
| 2026-05-07 19:01 | 51.11790 | 44.46458 | 40968 ft | 490 kts | 183° |
| 2026-05-07 19:02 | 51.04960 | 44.45889 | 40971 ft | 491 kts | 184° |
| 2026-05-07 19:02 | 50.98134 | 44.45247 | 40966 ft | 491 kts | 184° |
| 2026-05-07 19:03 | 50.91347 | 44.44612 | 40868 ft | 491 kts | 184° |
| 2026-05-07 19:03 | 50.87933 | 44.44294 | 40627 ft | 491 kts | 184° |
| 2026-05-07 19:03 | 50.84520 | 44.43976 | 40384 ft | 492 kts | 184° |
| 2026-05-07 19:03 | 50.81082 | 44.43656 | 40148 ft | 493 kts | 184° |
| 2026-05-07 19:04 | 50.77647 | 44.43337 | 39838 ft | 491 kts | 184° |
| 2026-05-07 19:04 | 50.74247 | 44.43023 | 39269 ft | 489 kts | 184° |
| 2026-05-07 19:04 | 50.70890 | 44.42712 | 38635 ft | 490 kts | 184° |
| 2026-05-07 19:04 | 50.67482 | 44.42397 | 37796 ft | 491 kts | 184° |
| 2026-05-07 19:05 | 50.64056 | 44.42081 | 36918 ft | 493 kts | 183° |
| 2026-05-07 19:05 | 50.60620 | 44.41764 | 36093 ft | 495 kts | 183° |
| 2026-05-07 19:05 | 50.57171 | 44.41447 | 35289 ft | 496 kts | 183° |
| 2026-05-07 19:05 | 50.53763 | 44.41134 | 34504 ft | 497 kts | 183° |
| 2026-05-07 19:06 | 50.50301 | 44.40816 | 33660 ft | 499 kts | 183° |
| 2026-05-07 19:06 | 50.43355 | 44.40181 | 31861 ft | 500 kts | 183° |
| 2026-05-07 19:06 | 50.39879 | 44.39864 | 30953 ft | 502 kts | 183° |
| 2026-05-07 19:07 | 50.36384 | 44.39546 | 30033 ft | 503 kts | 183° |
| 2026-05-07 19:07 | 50.32883 | 44.39227 | 29019 ft | 503 kts | 183° |
| 2026-05-07 19:07 | 50.29399 | 44.38910 | 28220 ft | 499 kts | 182° |
| 2026-05-07 19:07 | 50.25948 | 44.38597 | 27478 ft | 495 kts | 182° |
| 2026-05-07 19:08 | 50.23679 | 44.38391 | 27009 ft | 492 kts | 182° |
| 2026-05-07 19:08 | 50.20277 | 44.38083 | 26309 ft | 487 kts | 182° |
| 2026-05-07 19:08 | 50.16903 | 44.37778 | 25622 ft | 483 kts | 182° |
| 2026-05-07 19:08 | 50.12473 | 44.37378 | 24749 ft | 477 kts | 182° |
| 2026-05-07 19:09 | 50.10232 | 44.37176 | 24304 ft | 474 kts | 182° |
| 2026-05-07 19:09 | 50.06950 | 44.36880 | 23652 ft | 471 kts | 182° |
| 2026-05-07 19:09 | 50.03717 | 44.36590 | 22898 ft | 467 kts | 182° |
| 2026-05-07 19:09 | 50.00491 | 44.36300 | 22156 ft | 462 kts | 182° |
| 2026-05-07 19:10 | 49.97300 | 44.36013 | 21414 ft | 458 kts | 182° |
| 2026-05-07 19:10 | 49.94127 | 44.35729 | 20694 ft | 454 kts | 182° |
| 2026-05-07 19:10 | 49.90988 | 44.35448 | 20001 ft | 449 kts | 182° |
| 2026-05-07 19:10 | 49.87880 | 44.35171 | 19319 ft | 445 kts | 182° |
| 2026-05-07 19:11 | 49.84793 | 44.34895 | 18652 ft | 441 kts | 182° |
| 2026-05-07 19:11 | 49.81736 | 44.34623 | 17949 ft | 437 kts | 182° |
| 2026-05-07 19:11 | 49.78753 | 44.34358 | 17208 ft | 433 kts | 182° |
| 2026-05-07 19:11 | 49.75753 | 44.34091 | 16484 ft | 429 kts | 182° |
| 2026-05-07 19:12 | 49.72809 | 44.33829 | 15994 ft | 412 kts | 182° |
| 2026-05-07 19:12 | 49.70031 | 44.33581 | 15561 ft | 386 kts | 182° |
| 2026-05-07 19:12 | 49.67434 | 44.33350 | 15182 ft | 362 kts | 182° |
| 2026-05-07 19:12 | 49.64992 | 44.33133 | 14843 ft | 340 kts | 182° |
| 2026-05-07 19:13 | 49.62681 | 44.32929 | 14336 ft | 327 kts | 182° |
| 2026-05-07 19:13 | 49.60458 | 44.32734 | 13660 ft | 322 kts | 182° |
| 2026-05-07 19:13 | 49.58229 | 44.32539 | 12892 ft | 318 kts | 182° |
| 2026-05-07 19:13 | 49.56032 | 44.32353 | 12138 ft | 314 kts | 181° |
| 2026-05-07 19:14 | 49.53863 | 44.32342 | 11412 ft | 310 kts | 178° |
| 2026-05-07 19:14 | 49.51716 | 44.32414 | 10700 ft | 307 kts | 178° |
| 2026-05-07 19:14 | 49.49592 | 44.32479 | 10012 ft | 304 kts | 178° |
| 2026-05-07 19:14 | 49.47487 | 44.32531 | 9253 ft | 300 kts | 178° |
| 2026-05-07 19:15 | 49.45402 | 44.32573 | 8521 ft | 296 kts | 179° |
| 2026-05-07 19:15 | 49.43348 | 44.32609 | 7818 ft | 293 kts | 179° |
| 2026-05-07 19:15 | 49.41323 | 44.32642 | 7118 ft | 289 kts | 179° |
| 2026-05-07 19:15 | 49.39321 | 44.32674 | 6479 ft | 287 kts | 179° |
| 2026-05-07 19:16 | 49.37333 | 44.32704 | 6092 ft | 290 kts | 179° |
| 2026-05-07 19:16 | 49.35310 | 44.32734 | 5765 ft | 290 kts | 179° |
| 2026-05-07 19:16 | 49.33309 | 44.32763 | 5385 ft | 286 kts | 179° |
| 2026-05-07 19:16 | 49.31323 | 44.32792 | 4988 ft | 284 kts | 179° |
| 2026-05-07 19:17 | 49.29359 | 44.32821 | 4581 ft | 281 kts | 179° |
| 2026-05-07 19:17 | 49.27404 | 44.32849 | 4183 ft | 279 kts | 179° |
| 2026-05-07 19:17 | 49.25469 | 44.32878 | 3782 ft | 277 kts | 180° |
| 2026-05-07 19:17 | 49.23543 | 44.32905 | 3393 ft | 274 kts | 180° |
| 2026-05-07 19:18 | 49.21642 | 44.32934 | 3080 ft | 272 kts | 180° |
| 2026-05-07 19:18 | 49.19772 | 44.32961 | 2999 ft | 273 kts | 180° |
| 2026-05-07 19:18 | 49.17877 | 44.32988 | 2993 ft | 272 kts | 180° |
| 2026-05-07 19:18 | 49.15981 | 44.33047 | 2780 ft | 273 kts | 176° |
| 2026-05-07 19:19 | 49.14144 | 44.33725 | 2538 ft | 271 kts | 157° |
| 2026-05-07 19:19 | 49.12447 | 44.34963 | 2497 ft | 270 kts | 153° |
| 2026-05-07 19:19 | 49.10778 | 44.36278 | 2495 ft | 270 kts | 153° |
| 2026-05-07 19:19 | 49.09106 | 44.37596 | 2499 ft | 270 kts | 153° |
| 2026-05-07 19:20 | 49.07433 | 44.38908 | 2498 ft | 270 kts | 153° |
| 2026-05-07 19:20 | 49.05763 | 44.40212 | 2501 ft | 270 kts | 153° |
| 2026-05-07 19:20 | 49.04088 | 44.41517 | 2490 ft | 270 kts | 153° |
| 2026-05-07 19:20 | 49.02411 | 44.42821 | 2496 ft | 270 kts | 153° |
| 2026-05-07 19:21 | 49.00732 | 44.44125 | 2499 ft | 271 kts | 153° |
| 2026-05-07 19:21 | 48.99068 | 44.45415 | 2495 ft | 271 kts | 153° |
| 2026-05-07 19:21 | 48.97386 | 44.46717 | 2496 ft | 271 kts | 153° |
| 2026-05-07 19:21 | 48.95702 | 44.48021 | 2499 ft | 271 kts | 153° |
| 2026-05-07 19:22 | 48.94020 | 44.49322 | 2496 ft | 271 kts | 153° |
| 2026-05-07 19:22 | 48.92351 | 44.50582 | 2499 ft | 260 kts | 155° |
| 2026-05-07 19:22 | 48.90773 | 44.51714 | 2501 ft | 242 kts | 155° |
| 2026-05-07 19:22 | 48.89309 | 44.52761 | 2502 ft | 224 kts | 155° |
| 2026-05-07 19:23 | 48.87958 | 44.53727 | 2518 ft | 205 kts | 155° |
| 2026-05-07 19:23 | 48.86683 | 44.54453 | 2520 ft | 187 kts | 169° |
| 2026-05-07 19:23 | 48.85470 | 44.54379 | 2509 ft | 164 kts | 199° |
| 2026-05-07 19:23 | 48.84552 | 44.53581 | 2503 ft | 143 kts | 226° |
| 2026-05-07 19:24 | 48.83971 | 44.52451 | 2510 ft | 136 kts | 245° |
| 2026-05-07 19:24 | 48.83583 | 44.51143 | 2504 ft | 136 kts | 250° |
| 2026-05-07 19:24 | 48.83190 | 44.49854 | 2498 ft | 137 kts | 248° |
| 2026-05-07 19:24 | 48.82771 | 44.48545 | 2385 ft | 138 kts | 246° |
| 2026-05-07 19:25 | 48.82353 | 44.47250 | 2200 ft | 135 kts | 248° |
| 2026-05-07 19:25 | 48.81945 | 44.45968 | 2043 ft | 135 kts | 247° |
| 2026-05-07 19:25 | 48.81536 | 44.44687 | 1852 ft | 134 kts | 248° |
| 2026-05-07 19:25 | 48.81146 | 44.43429 | 1637 ft | 132 kts | 248° |
| 2026-05-07 19:26 | 48.80741 | 44.42179 | 1449 ft | 132 kts | 247° |
| 2026-05-07 19:26 | 48.80356 | 44.40920 | 1340 ft | 131 kts | 250° |
| 2026-05-07 19:26 | 48.79979 | 44.39646 | 1144 ft | 132 kts | 245° |
| 2026-05-07 19:26 | 48.79570 | 44.38406 | 991 ft | 134 kts | 245° |
| 2026-05-07 19:27 | 48.79169 | 44.37142 | 766 ft | 131 kts | 243° |
| 2026-05-07 19:27 | 48.78771 | 44.35908 | 591 ft | 130 kts | 245° |
| 2026-05-07 19:27 | 48.78384 | 44.34697 | 476 ft | 121 kts | 244° |
| 2026-05-07 19:27 | 48.78165 | 44.34007 | 472 ft | 18 kts | 244° |